Time;durP1;ratioP1;P1;durP2;ratioP2;P2;SDS_P1;SDS_P2;PMS_P1;PMS_P2;Temp;Humidity;BMP_temperature;BMP_pressure;BME280_temperature;BME280_humidity;BME280_pressure;Samples;Min_cycle;Max_cycle;Signal;HPM_P1;HPM_P2
2021/01/27 04:15:48;;;;;;;10.57;3.97;;;-0.70;99.90;;;;;;606043;22;20471;-86
2021/01/27 04:18:14;;;;;;;8.73;3.77;;;-0.70;99.90;;;;;;5023189;28;20048;-89
2021/01/27 04:20:40;;;;;;;8.37;4.80;;;-0.80;99.90;;;;;;5020396;28;20182;-88
2021/01/27 04:23:06;;;;;;;9.33;4.40;;;-0.70;99.90;;;;;;5033384;28;20025;-89
2021/01/27 04:25:31;;;;;;;8.23;4.50;;;-0.70;99.90;;;;;;5041665;28;20029;-89
2021/01/27 04:27:57;;;;;;;10.33;4.30;;;-0.70;99.90;;;;;;5014302;28;20044;-88
2021/01/27 04:30:28;;;;;;;7.97;4.10;;;-0.70;99.90;;;;;;5007977;28;20030;-89
2021/01/27 04:32:55;;;;;;;8.07;4.23;;;-0.70;99.90;;;;;;5005036;28;20334;-88
2021/01/27 04:35:21;;;;;;;11.77;4.17;;;-0.60;99.90;;;;;;5020044;28;20063;-88
2021/01/27 04:37:47;;;;;;;8.40;3.83;;;-0.60;99.90;;;;;;5022263;28;20084;-88
2021/01/27 04:40:28;;;;;;;8.73;4.00;;;-0.60;99.90;;;;;;5018625;28;20449;-89
2021/01/27 04:42:55;;;;;;;9.37;3.90;;;-0.60;99.90;;;;;;5022968;28;20714;-89
2021/01/27 04:45:21;;;;;;;8.50;4.20;;;-0.50;99.90;;;;;;5024496;28;20030;-88
2021/01/27 04:48:11;;;;;;;10.50;4.07;;;-0.50;99.90;;;;;;5022556;28;20057;-88
2021/01/27 04:50:45;;;;;;;7.97;3.70;;;-0.50;99.90;;;;;;5006170;28;20026;-88
2021/01/27 04:53:23;;;;;;;7.23;3.60;;;-0.50;99.90;;;;;;5015797;28;20026;-88
2021/01/27 04:56:19;;;;;;;9.83;3.87;;;-0.50;99.90;;;;;;5014454;28;20538;-89
2021/01/27 04:59:06;;;;;;;12.13;3.77;;;-0.50;99.90;;;;;;5035938;28;20383;-88
2021/01/27 05:01:46;;;;;;;8.60;3.70;;;-0.50;99.90;;;;;;5004853;28;20478;-89
2021/01/27 05:04:30;;;;;;;8.43;3.07;;;-0.50;99.90;;;;;;5020628;28;20094;-88
2021/01/27 05:07:01;;;;;;;8.00;3.20;;;-0.50;99.90;;;;;;5022004;28;20047;-88
2021/01/27 05:09:43;;;;;;;9.03;3.10;;;-0.50;99.90;;;;;;5023299;28;20101;-88
2021/01/27 05:12:10;;;;;;;5.95;3.03;;;-0.50;99.90;;;;;;5019390;28;20036;-89
2021/01/27 05:14:37;;;;;;;7.83;3.20;;;-0.50;99.90;;;;;;5001768;28;20030;-88
2021/01/27 05:17:08;;;;;;;8.17;3.00;;;-0.50;99.90;;;;;;5040151;28;20141;-89
2021/01/27 05:19:34;;;;;;;6.72;3.58;;;-0.50;99.90;;;;;;5026871;28;20039;-88
2021/01/27 05:22:01;;;;;;;7.60;3.53;;;-0.50;99.90;;;;;;5012935;28;20482;-88
2021/01/27 05:24:27;;;;;;;7.13;3.00;;;-0.50;99.90;;;;;;5016670;28;20616;-88
2021/01/27 05:26:58;;;;;;;5.27;2.87;;;-0.50;99.90;;;;;;5025553;28;20022;-88
2021/01/27 05:29:30;;;;;;;7.80;3.00;;;-0.50;99.90;;;;;;5028798;28;20490;-89
2021/01/27 05:32:05;;;;;;;5.83;3.00;;;-0.50;99.90;;;;;;5022880;28;20032;-88
2021/01/27 05:34:49;;;;;;;6.60;3.17;;;-0.50;99.90;;;;;;5011059;28;20386;-88
2021/01/27 05:37:17;;;;;;;7.93;3.30;;;-0.50;99.90;;;;;;5020206;28;20029;-88
2021/01/27 05:39:44;;;;;;;7.23;3.30;;;-0.50;99.90;;;;;;5039441;28;20033;-88
2021/01/27 05:42:31;;;;;;;8.07;3.47;;;-0.50;99.90;;;;;;5045524;28;20033;-88
2021/01/27 05:45:19;;;;;;;6.30;3.00;;;-0.50;99.90;;;;;;5020846;28;20108;-89
2021/01/27 05:47:45;;;;;;;7.60;3.27;;;-0.50;99.90;;;;;;5016683;28;20127;-87
2021/01/27 05:50:33;;;;;;;6.57;3.20;;;-0.50;99.90;;;;;;5012276;28;20494;-88
2021/01/27 05:53:21;;;;;;;6.70;3.50;;;-0.50;99.90;;;;;;5013621;28;20017;-88
2021/01/27 05:56:15;;;;;;;7.47;3.20;;;-0.50;99.90;;;;;;5011964;28;20025;-88
2021/01/27 05:58:53;;;;;;;9.80;3.73;;;-0.50;99.90;;;;;;5026249;28;20025;-88
2021/01/27 06:01:30;;;;;;;7.97;3.50;;;-0.50;99.90;;;;;;5020238;28;20029;-88
2021/01/27 06:04:11;;;;;;;6.97;3.63;;;-0.50;99.90;;;;;;5030743;28;20044;-88
2021/01/27 06:06:42;;;;;;;8.60;3.53;;;-0.50;99.90;;;;;;5016443;28;20382;-88
2021/01/27 06:09:09;;;;;;;7.57;3.43;;;-0.50;99.90;;;;;;5017370;28;20028;-89
2021/01/27 06:11:34;;;;;;;5.90;3.40;;;-0.50;99.90;;;;;;5008294;28;20768;-89
2021/01/27 06:14:12;;;;;;;8.03;3.43;;;-0.50;99.90;;;;;;5014403;28;20028;-88
2021/01/27 06:16:43;;;;;;;9.53;3.67;;;-0.60;99.90;;;;;;5016857;28;20041;-88
2021/01/27 06:19:17;;;;;;;7.80;3.73;;;-0.60;99.90;;;;;;5018322;28;20667;-89
2021/01/27 06:22:20;;;;;;;6.70;3.43;;;-0.60;99.90;;;;;;5028397;28;20482;-88
2021/01/27 06:24:54;;;;;;;7.75;3.33;;;-0.70;99.90;;;;;;5004313;28;20105;-88
2021/01/27 06:27:44;;;;;;;6.57;3.23;;;-0.70;99.90;;;;;;5010217;28;20486;-88
2021/01/27 06:30:29;;;;;;;7.83;3.23;;;-0.70;99.90;;;;;;5009703;28;20032;-89
2021/01/27 06:33:27;;;;;;;7.77;4.20;;;-0.60;99.90;;;;;;5014574;28;20029;-89
2021/01/27 06:36:18;;;;;;;12.30;3.97;;;-0.60;99.90;;;;;;5026988;28;20013;-88
2021/01/27 06:38:58;;;;;;;8.87;3.83;;;-0.60;99.90;;;;;;5007464;28;20486;-88
2021/01/27 06:41:41;;;;;;;7.80;3.90;;;-0.60;99.90;;;;;;5006350;28;20021;-86
2021/01/27 06:44:44;;;;;;;7.43;3.33;;;-0.50;99.90;;;;;;5025398;28;20036;-88
2021/01/27 06:47:13;;;;;;;6.00;3.10;;;-0.50;99.90;;;;;;5033865;28;20080;-88
2021/01/27 06:49:53;;;;;;;6.20;3.00;;;-0.40;99.90;;;;;;5017062;28;20040;-88
2021/01/27 06:52:57;;;;;;;7.50;3.17;;;-0.40;99.90;;;;;;5014255;28;20025;-89
2021/01/27 06:55:41;;;;;;;6.60;2.87;;;-0.40;99.90;;;;;;5012568;28;20048;-89
2021/01/27 06:58:13;;;;;;;6.03;2.90;;;-0.40;99.90;;;;;;5018311;28;20405;-88
2021/01/27 07:01:21;;;;;;;6.93;2.80;;;-0.30;99.90;;;;;;5033186;28;20021;-89
2021/01/27 07:04:12;;;;;;;9.77;3.83;;;-0.30;99.90;;;;;;4970398;28;20194;-88
2021/01/27 07:07:02;;;;;;;7.73;2.67;;;-0.30;99.90;;;;;;5015878;28;20037;-89
2021/01/27 07:09:41;;;;;;;8.17;3.07;;;-0.20;99.90;;;;;;5022633;28;20029;-89
2021/01/27 07:12:18;;;;;;;7.30;3.53;;;-0.20;99.90;;;;;;5024888;28;20025;-88
2021/01/27 07:15:22;;;;;;;11.60;3.33;;;-0.20;99.90;;;;;;5021547;28;20674;-89
2021/01/27 07:18:14;;;;;;;7.43;3.17;;;-0.20;99.90;;;;;;5035891;28;20079;-89
2021/01/27 07:21:02;;;;;;;6.37;3.07;;;-0.20;99.90;;;;;;5018859;28;20021;-88
2021/01/27 07:23:54;;;;;;;8.23;3.27;;;-0.20;99.90;;;;;;5019208;28;20264;-88
2021/01/27 07:26:31;;;;;;;5.72;2.40;;;-0.20;99.90;;;;;;5036058;28;20496;-87
2021/01/27 07:29:13;;;;;;;5.27;2.53;;;-0.20;99.90;;;;;;5015083;28;20503;-87
2021/01/27 07:31:51;;;;;;;7.25;2.58;;;-0.20;99.90;;;;;;5014925;28;20482;-85
2021/01/27 07:34:27;;;;;;;7.83;2.90;;;-0.20;99.90;;;;;;5014668;28;20029;-85
2021/01/27 07:37:16;;;;;;;6.13;2.67;;;-0.20;99.90;;;;;;5021931;28;20026;-86
2021/01/27 07:40:23;;;;;;;7.17;3.10;;;-0.10;99.90;;;;;;5024738;28;20044;-88
2021/01/27 07:43:07;;;;;;;7.50;3.20;;;-0.10;99.90;;;;;;4994070;28;21099;-87
2021/01/27 07:45:37;;;;;;;6.30;2.43;;;-0.10;99.90;;;;;;5016480;28;20068;-87
2021/01/27 07:48:15;;;;;;;6.87;3.27;;;-0.10;99.90;;;;;;5020625;28;20064;-87
2021/01/27 07:50:40;;;;;;;7.80;3.13;;;0.00;99.90;;;;;;5021250;28;20021;-87
2021/01/27 07:53:15;;;;;;;7.43;3.20;;;-0.10;99.90;;;;;;5012744;28;20025;-87
2021/01/27 07:56:05;;;;;;;7.53;3.17;;;-0.10;99.90;;;;;;5025738;28;20447;-86
2021/01/27 07:58:34;;;;;;;7.30;3.40;;;-0.10;99.90;;;;;;5022925;28;20171;-87
2021/01/27 08:01:12;;;;;;;8.37;3.80;;;-0.20;99.90;;;;;;5022296;28;20025;-89
2021/01/27 08:03:43;;;;;;;7.93;3.50;;;-0.20;99.90;;;;;;5032797;28;20013;-87
2021/01/27 08:06:17;;;;;;;6.13;3.17;;;-0.20;99.90;;;;;;5035778;28;20033;-87
2021/01/27 08:08:53;;;;;;;8.87;3.47;;;-0.10;99.90;;;;;;5033913;28;20458;-89
2021/01/27 08:11:29;;;;;;;7.00;3.50;;;-0.10;99.90;;;;;;5023804;28;20022;-87
2021/01/27 08:13:55;;;;;;;6.77;3.30;;;-0.10;99.90;;;;;;5015558;28;20076;-89
2021/01/27 08:16:31;;;;;;;10.73;3.60;;;-0.10;99.90;;;;;;5019954;28;20037;-88
2021/01/27 08:19:12;;;;;;;7.27;3.37;;;-0.10;99.90;;;;;;5020610;28;20025;-87
2021/01/27 08:21:50;;;;;;;5.67;3.33;;;0.00;99.90;;;;;;5020577;28;20032;-88
2021/01/27 08:24:37;;;;;;;6.33;3.27;;;0.00;99.90;;;;;;5020269;28;20032;-87
2021/01/27 08:27:09;;;;;;;7.83;3.60;;;0.00;99.90;;;;;;5022758;28;20037;-88
2021/01/27 08:29:36;;;;;;;4.57;2.13;;;0.00;99.90;;;;;;5011683;28;20022;-89
2021/01/27 08:32:31;;;;;;;6.93;2.97;;;0.00;99.90;;;;;;5012827;28;20036;-88
2021/01/27 08:35:31;;;;;;;6.70;3.47;;;0.00;99.90;;;;;;5016289;28;20541;-89
2021/01/27 08:38:21;;;;;;;7.77;3.80;;;0.00;99.90;;;;;;5034000;28;20029;-89
2021/01/27 08:40:48;;;;;;;6.73;3.50;;;0.00;99.90;;;;;;5009286;28;20033;-87
2021/01/27 08:43:15;;;;;;;6.10;3.00;;;0.00;99.90;;;;;;5016424;28;20040;-86
2021/01/27 08:45:43;;;;;;;7.90;3.13;;;0.00;99.90;;;;;;5022135;28;20164;-89
2021/01/27 08:48:09;;;;;;;8.17;3.53;;;0.00;99.90;;;;;;5015847;28;20040;-88
2021/01/27 08:50:48;;;;;;;7.37;3.73;;;-0.10;99.90;;;;;;5015995;28;20025;-89
2021/01/27 08:53:26;;;;;;;6.50;3.87;;;0.00;99.90;;;;;;5035865;28;20030;-88
2021/01/27 08:55:59;;;;;;;8.40;3.40;;;0.00;99.90;;;;;;5028277;28;20028;-88
2021/01/27 08:58:26;;;;;;;8.40;3.93;;;-0.10;99.90;;;;;;5018442;28;20663;-89
2021/01/27 09:00:55;;;;;;;9.37;4.17;;;0.00;99.90;;;;;;5021111;28;20091;-89
2021/01/27 09:03:44;;;;;;;11.97;4.10;;;0.00;99.90;;;;;;5018783;28;20048;-91
2021/01/27 09:06:45;;;;;;;14.40;4.53;;;0.10;99.90;;;;;;5020976;28;20094;-92
2021/01/27 09:09:20;;;;;;;12.80;4.33;;;0.10;99.90;;;;;;5040908;28;20042;-91
2021/01/27 09:11:46;;;;;;;18.47;8.27;;;0.10;99.90;;;;;;5036300;28;20094;-92
2021/01/27 09:14:14;;;;;;;8.33;4.60;;;0.10;99.90;;;;;;5038335;28;20048;-90
2021/01/27 09:17:11;;;;;;;12.03;5.47;;;0.20;99.90;;;;;;5018029;28;20044;-93
2021/01/27 09:19:37;;;;;;;7.47;4.00;;;0.10;99.90;;;;;;5007329;28;20065;-91
2021/01/27 09:22:13;;;;;;;8.73;4.80;;;0.10;99.90;;;;;;5017443;28;20030;-90
2021/01/27 09:24:43;;;;;;;8.87;4.17;;;0.10;99.90;;;;;;5010791;28;20057;-90
2021/01/27 09:27:18;;;;;;;7.60;4.27;;;0.00;99.90;;;;;;5019030;28;20076;-90
2021/01/27 09:29:45;;;;;;;12.37;4.37;;;0.00;99.90;;;;;;5034317;28;20029;-90
2021/01/27 09:32:16;;;;;;;9.20;4.40;;;0.00;99.90;;;;;;5018850;28;20060;-90
2021/01/27 09:34:43;;;;;;;8.55;4.22;;;0.00;99.90;;;;;;5019890;28;20071;-89
2021/01/27 09:37:18;;;;;;;8.40;3.30;;;0.10;99.90;;;;;;5009057;28;20038;-90
2021/01/27 09:40:09;;;;;;;7.10;3.43;;;0.00;99.90;;;;;;5033735;28;20036;-90
2021/01/27 09:42:34;;;;;;;6.73;3.20;;;-0.10;99.90;;;;;;5016775;28;20017;-90
2021/01/27 09:45:06;;;;;;;6.50;3.40;;;-0.10;99.90;;;;;;5022068;28;20091;-91
2021/01/27 09:47:33;;;;;;;8.20;4.10;;;-0.10;99.90;;;;;;5017074;28;20029;-90
2021/01/27 09:50:01;;;;;;;5.97;3.10;;;-0.10;99.90;;;;;;5019009;28;20024;-90
2021/01/27 09:52:28;;;;;;;7.70;3.60;;;-0.10;99.90;;;;;;5013676;28;20029;-92
2021/01/27 09:55:15;;;;;;;8.00;3.20;;;0.00;99.90;;;;;;5017462;28;20021;-91
2021/01/27 09:57:43;;;;;;;7.43;3.27;;;0.00;99.90;;;;;;5013704;28;20028;-91
2021/01/27 10:00:33;;;;;;;9.60;3.10;;;0.10;99.90;;;;;;5014891;28;20393;-88
2021/01/27 10:03:21;;;;;;;6.97;2.90;;;0.20;99.90;;;;;;5005918;28;20049;-90
2021/01/27 10:05:47;;;;;;;7.17;3.00;;;0.10;99.90;;;;;;5012258;28;20462;-90
2021/01/27 10:08:36;;;;;;;5.53;2.77;;;0.10;99.90;;;;;;5014811;28;20026;-89
2021/01/27 10:11:06;;;;;;;10.97;3.37;;;0.20;99.90;;;;;;5013341;28;21711;-91
2021/01/27 10:13:33;;;;;;;5.47;2.30;;;0.30;99.90;;;;;;5015607;28;20517;-92
2021/01/27 10:16:12;;;;;;;7.00;2.60;;;0.40;99.90;;;;;;5012558;28;20053;-89
2021/01/27 10:18:43;;;;;;;8.10;2.60;;;0.50;99.90;;;;;;5012116;28;20052;-89
2021/01/27 10:21:13;;;;;;;8.83;2.30;;;0.60;99.90;;;;;;5014067;28;20035;-88
2021/01/27 10:23:41;;;;;;;5.97;2.20;;;0.70;99.90;;;;;;5017424;28;20100;-88
2021/01/27 10:26:37;;;;;;;4.53;1.70;;;0.80;99.90;;;;;;5014267;28;20113;-89
2021/01/27 10:29:16;;;;;;;5.23;1.77;;;0.90;99.90;;;;;;5008461;28;20091;-89
2021/01/27 10:31:48;;;;;;;4.90;2.47;;;1.00;99.90;;;;;;5019308;28;20116;-88
2021/01/27 10:34:38;;;;;;;5.57;1.65;;;1.00;99.90;;;;;;5016772;28;20064;-87
2021/01/27 10:37:05;;;;;;;5.37;1.80;;;1.00;99.90;;;;;;5009207;28;20504;-89
2021/01/27 10:39:32;;;;;;;3.70;1.47;;;1.30;99.90;;;;;;5014689;28;20432;-89
2021/01/27 10:42:08;;;;;;;6.10;1.70;;;1.40;99.90;;;;;;5015067;28;20068;-89
2021/01/27 10:44:36;;;;;;;6.00;2.47;;;1.40;99.90;;;;;;5011394;28;20041;-89
2021/01/27 10:47:25;;;;;;;7.00;2.30;;;1.50;99.90;;;;;;5011439;28;20037;-89
2021/01/27 10:49:53;;;;;;;5.70;2.00;;;1.60;99.90;;;;;;5009000;28;20053;-89
2021/01/27 10:52:28;;;;;;;6.03;2.50;;;1.50;99.90;;;;;;5024630;28;20025;-92
2021/01/27 10:54:55;;;;;;;5.03;2.20;;;1.60;99.90;;;;;;5014259;28;20045;-88
2021/01/27 10:57:22;;;;;;;5.83;2.27;;;1.50;99.90;;;;;;5031843;28;20025;-91
2021/01/27 10:59:49;;;;;;;6.63;2.43;;;1.40;99.90;;;;;;5016096;28;20079;-89
2021/01/27 11:02:16;;;;;;;5.00;2.47;;;1.30;99.90;;;;;;5015253;28;20071;-88
2021/01/27 11:04:43;;;;;;;5.13;2.20;;;1.10;99.90;;;;;;5019327;28;20510;-88
2021/01/27 11:07:08;;;;;;;5.10;2.50;;;1.10;99.90;;;;;;5010916;28;20057;-88
2021/01/27 11:09:34;;;;;;;12.87;3.77;;;1.10;99.90;;;;;;5018312;28;20057;-88
2021/01/27 11:12:00;;;;;;;5.40;2.50;;;1.00;99.90;;;;;;5020846;28;20553;-88
2021/01/27 11:14:26;;;;;;;9.47;2.93;;;1.00;99.90;;;;;;5039845;28;20036;-88
2021/01/27 11:16:52;;;;;;;7.20;2.70;;;1.10;99.90;;;;;;5020869;28;20033;-89
2021/01/27 11:19:19;;;;;;;8.20;2.90;;;1.10;99.90;;;;;;5017399;28;20417;-89
2021/01/27 11:21:46;;;;;;;5.57;2.63;;;1.20;99.90;;;;;;5016152;28;20577;-90
2021/01/27 11:24:12;;;;;;;4.10;2.13;;;1.20;99.90;;;;;;5014515;28;20028;-90
2021/01/27 11:26:37;;;;;;;6.17;3.03;;;1.30;99.90;;;;;;5021391;28;20456;-89
2021/01/27 11:29:04;;;;;;;5.90;2.40;;;1.20;99.90;;;;;;5019201;28;20022;-90
2021/01/27 11:31:31;;;;;;;4.10;2.20;;;1.10;99.90;;;;;;5018204;28;20044;-89
2021/01/27 11:33:57;;;;;;;6.00;2.77;;;1.20;99.90;;;;;;5019628;28;20025;-89
2021/01/27 11:36:26;;;;;;;5.90;2.00;;;1.20;99.90;;;;;;5023408;28;20091;-89
2021/01/27 11:38:54;;;;;;;6.67;2.10;;;1.30;99.90;;;;;;5027507;28;20052;-90
2021/01/27 11:41:23;;;;;;;5.53;1.90;;;1.40;99.90;;;;;;5022780;28;20029;-91
2021/01/27 11:43:49;;;;;;;6.23;2.23;;;1.40;99.90;;;;;;5026174;28;20029;-89
2021/01/27 11:46:17;;;;;;;8.97;2.40;;;1.50;99.90;;;;;;5020042;28;20029;-90
2021/01/27 11:48:44;;;;;;;4.50;1.77;;;1.60;99.90;;;;;;5009127;28;20419;-90
2021/01/27 11:51:12;;;;;;;6.50;1.83;;;1.70;99.90;;;;;;5021954;28;20025;-90
2021/01/27 11:53:39;;;;;;;5.57;1.80;;;1.80;99.90;;;;;;5021408;28;20083;-90
2021/01/27 11:56:05;;;;;;;8.20;1.70;;;2.00;99.90;;;;;;5007610;28;20021;-90
2021/01/27 11:58:31;;;;;;;4.70;1.73;;;1.80;99.90;;;;;;5012950;28;20088;-90
2021/01/27 12:00:59;;;;;;;5.20;2.00;;;1.70;99.90;;;;;;5007398;28;20033;-89
2021/01/27 12:03:24;;;;;;;4.43;2.17;;;1.80;99.90;;;;;;5012090;28;20490;-90
2021/01/27 12:05:50;;;;;;;5.67;2.57;;;1.70;99.90;;;;;;5029264;28;20032;-90
2021/01/27 12:08:16;;;;;;;5.60;2.83;;;1.70;99.90;;;;;;5036453;28;20501;-89
2021/01/27 12:10:42;;;;;;;6.13;2.80;;;1.60;99.90;;;;;;5020879;28;20083;-89
2021/01/27 12:13:08;;;;;;;8.23;2.50;;;1.40;99.90;;;;;;5015097;28;20026;-89
2021/01/27 12:15:34;;;;;;;5.90;2.80;;;1.40;99.90;;;;;;5006569;28;20124;-89
2021/01/27 12:17:59;;;;;;;6.50;2.43;;;1.30;99.90;;;;;;5011247;28;20040;-90
2021/01/27 12:20:25;;;;;;;6.00;2.00;;;1.40;99.90;;;;;;5030397;28;20033;-90
2021/01/27 12:22:51;;;;;;;4.13;2.10;;;1.50;99.90;;;;;;5010708;28;20033;-88
2021/01/27 12:25:18;;;;;;;5.23;1.80;;;1.40;99.90;;;;;;5015988;28;20037;-88
2021/01/27 12:27:43;;;;;;;6.00;2.03;;;1.50;99.90;;;;;;5011690;28;20148;-87
2021/01/27 12:30:11;;;;;;;5.83;3.00;;;1.40;99.90;;;;;;5017456;28;20059;-88
2021/01/27 12:32:36;;;;;;;5.80;2.20;;;1.60;99.90;;;;;;5015153;28;20034;-88
2021/01/27 12:35:04;;;;;;;9.20;2.67;;;1.80;99.90;;;;;;5016906;28;20092;-88
2021/01/27 12:37:30;;;;;;;8.57;2.30;;;1.90;99.90;;;;;;5016183;28;20025;-87
2021/01/27 12:39:56;;;;;;;10.37;3.10;;;2.10;99.90;;;;;;5011421;28;20501;-89
2021/01/27 12:42:21;;;;;;;5.93;3.20;;;2.10;99.90;;;;;;5022565;28;20038;-89
2021/01/27 12:44:53;;;;;;;8.10;3.73;;;2.10;99.90;;;;;;5033553;28;20108;-90
2021/01/27 12:47:22;;;;;;;6.15;2.45;;;2.10;99.90;;;;;;5016442;28;20033;-87
2021/01/27 12:49:48;;;;;;;6.23;2.90;;;2.20;99.90;;;;;;5015186;28;20026;-90
2021/01/27 12:52:15;;;;;;;7.43;2.93;;;2.20;99.90;;;;;;5014358;28;20084;-88
2021/01/27 12:54:41;;;;;;;5.70;3.20;;;2.10;99.90;;;;;;5019570;28;20075;-89
2021/01/27 12:57:07;;;;;;;5.13;3.20;;;2.10;99.90;;;;;;5017750;28;20064;-88
2021/01/27 12:59:33;;;;;;;7.03;3.23;;;2.10;99.90;;;;;;5017996;28;20025;-88
2021/01/27 13:01:59;;;;;;;7.57;3.10;;;2.30;99.90;;;;;;5017003;28;20110;-88
2021/01/27 13:04:25;;;;;;;5.07;2.70;;;2.40;99.90;;;;;;5016524;28;20040;-89
2021/01/27 13:06:51;;;;;;;5.47;2.67;;;2.60;99.90;;;;;;5028556;28;20025;-89
2021/01/27 13:09:16;;;;;;;7.83;3.17;;;2.60;99.90;;;;;;5043383;28;20067;-88
2021/01/27 13:11:43;;;;;;;10.77;3.30;;;2.70;99.90;;;;;;5021528;28;20025;-87
2021/01/27 13:14:08;;;;;;;6.93;2.93;;;2.60;99.90;;;;;;5014502;28;20017;-88
2021/01/27 13:16:37;;;;;;;6.37;3.00;;;2.50;99.90;;;;;;5019828;28;20037;-88
2021/01/27 13:19:02;;;;;;;6.90;2.80;;;2.40;99.90;;;;;;5016554;28;20092;-88
2021/01/27 13:21:29;;;;;;;5.17;2.90;;;2.20;99.90;;;;;;5017435;28;20029;-88
2021/01/27 13:23:56;;;;;;;4.50;2.50;;;2.20;99.90;;;;;;5013769;28;20541;-90
2021/01/27 13:26:21;;;;;;;6.03;2.93;;;1.90;99.90;;;;;;5024556;28;20041;-87
2021/01/27 13:28:47;;;;;;;7.37;3.40;;;1.90;99.90;;;;;;5024170;28;20041;-88
2021/01/27 13:31:13;;;;;;;8.10;3.27;;;2.00;99.90;;;;;;5016931;28;20030;-88
2021/01/27 13:33:38;;;;;;;8.07;3.57;;;2.10;99.90;;;;;;5020601;28;20119;-88
2021/01/27 13:36:04;;;;;;;7.53;3.40;;;2.00;99.90;;;;;;5018298;28;20084;-88
2021/01/27 13:38:30;;;;;;;7.67;3.40;;;2.10;99.90;;;;;;5015030;28;20120;-88
2021/01/27 13:40:55;;;;;;;7.93;3.53;;;2.20;99.90;;;;;;5022008;28;20451;-87
2021/01/27 13:43:21;;;;;;;7.53;3.40;;;2.20;99.90;;;;;;5021889;28;20096;-87
2021/01/27 13:45:49;;;;;;;6.93;3.80;;;2.20;99.90;;;;;;5017603;28;20056;-87
2021/01/27 13:48:15;;;;;;;8.53;3.70;;;2.00;99.90;;;;;;5034728;28;20036;-88
2021/01/27 13:50:41;;;;;;;7.80;3.83;;;1.80;99.90;;;;;;5020652;28;20025;-88
2021/01/27 13:53:07;;;;;;;9.20;3.77;;;1.80;99.90;;;;;;5020842;28;20034;-86
2021/01/27 13:55:33;;;;;;;9.20;3.83;;;1.70;99.90;;;;;;5018766;28;20033;-86
2021/01/27 13:57:58;;;;;;;7.63;3.93;;;1.80;99.90;;;;;;5046504;28;20060;-87
2021/01/27 14:00:25;;;;;;;7.73;4.30;;;1.70;99.90;;;;;;5049069;28;20037;-86
2021/01/27 14:02:51;;;;;;;7.60;3.80;;;1.70;99.90;;;;;;5039818;28;20391;-88
2021/01/27 14:05:20;;;;;;;7.33;4.07;;;1.70;99.90;;;;;;5014651;28;20623;-87
2021/01/27 14:07:47;;;;;;;9.37;3.87;;;1.80;99.90;;;;;;5013436;28;20036;-88
2021/01/27 14:10:14;;;;;;;6.50;3.97;;;1.70;99.90;;;;;;5019461;28;20025;-88
2021/01/27 14:12:39;;;;;;;6.80;3.90;;;1.70;99.90;;;;;;5033624;28;20025;-87
2021/01/27 14:15:06;;;;;;;8.17;3.87;;;1.70;99.90;;;;;;5018148;28;20021;-88
2021/01/27 14:17:32;;;;;;;8.87;4.13;;;1.70;99.90;;;;;;5011987;28;20080;-88
2021/01/27 14:20:01;;;;;;;7.60;4.40;;;1.70;99.90;;;;;;5007602;28;20041;-87
2021/01/27 14:22:27;;;;;;;10.00;3.70;;;1.70;99.90;;;;;;5011855;28;20033;-87
2021/01/27 14:24:53;;;;;;;6.40;3.90;;;1.70;99.90;;;;;;5009527;28;20037;-88
2021/01/27 14:27:18;;;;;;;8.60;4.03;;;1.60;99.90;;;;;;5016220;28;20128;-88
2021/01/27 14:29:44;;;;;;;7.60;4.10;;;1.60;99.90;;;;;;5016327;28;20471;-88
2021/01/27 14:32:09;;;;;;;9.60;4.57;;;1.60;99.90;;;;;;5013955;28;20025;-87
2021/01/27 14:34:35;;;;;;;7.60;3.97;;;1.60;99.90;;;;;;5013500;28;20044;-87
2021/01/27 14:37:01;;;;;;;8.57;3.97;;;1.50;99.90;;;;;;5015729;28;20033;-88
2021/01/27 14:39:27;;;;;;;11.40;4.03;;;1.50;99.90;;;;;;5015853;28;20041;-87
2021/01/27 14:41:53;;;;;;;7.80;4.10;;;1.50;99.90;;;;;;5018778;28;20052;-88
2021/01/27 14:44:18;;;;;;;9.33;4.30;;;1.40;99.90;;;;;;5017881;28;20044;-87
2021/01/27 14:46:46;;;;;;;8.37;4.63;;;1.30;99.90;;;;;;5024202;28;20094;-87
2021/01/27 14:49:12;;;;;;;9.23;3.90;;;1.30;99.90;;;;;;5016149;28;20021;-86
2021/01/27 14:51:39;;;;;;;8.17;4.00;;;1.20;99.90;;;;;;5024387;28;20022;-87
2021/01/27 14:54:05;;;;;;;9.90;4.13;;;1.30;99.90;;;;;;5014303;28;20057;-87
2021/01/27 14:56:30;;;;;;;7.70;3.77;;;1.20;99.90;;;;;;5023869;28;20127;-87
2021/01/27 14:58:56;;;;;;;6.83;3.83;;;1.20;99.90;;;;;;5014105;28;20160;-87
2021/01/27 15:01:22;;;;;;;10.87;3.13;;;1.20;99.90;;;;;;5015837;28;20683;-87
2021/01/27 15:03:48;;;;;;;7.63;3.37;;;1.20;99.90;;;;;;5009639;28;20544;-87
2021/01/27 15:06:13;;;;;;;5.70;3.13;;;1.20;99.90;;;;;;5016029;28;20869;-87
2021/01/27 15:08:39;;;;;;;7.00;3.20;;;1.20;99.90;;;;;;5037219;28;20413;-86
2021/01/27 15:11:05;;;;;;;6.20;3.00;;;1.20;99.90;;;;;;5024382;28;20876;-87
2021/01/27 15:13:30;;;;;;;6.30;2.60;;;1.20;99.90;;;;;;5025250;28;20028;-86
2021/01/27 15:15:56;;;;;;;11.03;3.20;;;1.10;99.90;;;;;;5025462;28;20017;-87
2021/01/27 15:18:22;;;;;;;8.00;2.97;;;1.20;99.90;;;;;;5022088;28;20056;-87
2021/01/27 15:20:48;;;;;;;6.33;3.10;;;1.10;99.90;;;;;;5019621;28;20029;-86
2021/01/27 15:23:13;;;;;;;6.97;3.13;;;1.10;99.90;;;;;;5032481;28;20079;-87
2021/01/27 15:25:40;;;;;;;6.57;3.30;;;1.10;99.90;;;;;;5021039;28;20040;-88
2021/01/27 15:28:05;;;;;;;6.40;3.17;;;1.10;99.90;;;;;;5015050;28;20041;-86
2021/01/27 15:30:32;;;;;;;6.20;3.10;;;1.10;99.90;;;;;;5015754;28;20018;-88
2021/01/27 15:32:59;;;;;;;6.30;3.20;;;1.10;99.90;;;;;;5037511;28;20092;-87
2021/01/27 15:35:26;;;;;;;8.57;3.17;;;1.10;99.90;;;;;;5022450;28;20021;-88
2021/01/27 15:37:53;;;;;;;6.93;3.50;;;1.00;99.90;;;;;;5020610;28;20110;-87
2021/01/27 15:40:26;;;;;;;6.87;3.30;;;1.10;99.90;;;;;;5022624;28;20048;-88
2021/01/27 15:42:55;;;;;;;9.50;3.90;;;1.10;99.90;;;;;;5023041;28;20025;-88
2021/01/27 15:45:22;;;;;;;7.57;3.17;;;1.10;99.90;;;;;;5015919;28;20124;-85
2021/01/27 15:47:47;;;;;;;7.10;3.60;;;1.10;99.90;;;;;;5032519;28;20059;-85
2021/01/27 15:50:15;;;;;;;7.63;3.50;;;1.10;99.90;;;;;;5021917;28;20447;-85
2021/01/27 15:52:41;;;;;;;6.53;3.30;;;1.10;99.90;;;;;;5032386;28;20053;-86
2021/01/27 15:55:08;;;;;;;8.40;3.47;;;1.00;99.90;;;;;;5033782;28;20049;-86
2021/01/27 15:57:35;;;;;;;7.00;3.70;;;1.10;99.90;;;;;;5016945;28;20394;-85
2021/01/27 16:00:02;;;;;;;7.33;3.60;;;1.10;99.90;;;;;;5034502;28;20055;-86
2021/01/27 16:02:28;;;;;;;8.40;4.10;;;1.00;99.90;;;;;;5010376;28;20029;-86
2021/01/27 16:04:54;;;;;;;8.03;4.07;;;1.00;99.90;;;;;;5018385;28;20017;-86
2021/01/27 16:07:19;;;;;;;8.63;3.90;;;1.00;99.90;;;;;;5017216;28;20452;-88
2021/01/27 16:09:47;;;;;;;6.97;3.90;;;1.00;99.90;;;;;;5013393;28;20473;-88
2021/01/27 16:12:13;;;;;;;9.00;4.33;;;1.00;99.90;;;;;;5019553;28;20024;-87
2021/01/27 16:14:39;;;;;;;9.03;4.77;;;0.90;99.90;;;;;;5027111;28;20068;-87
2021/01/27 19:51:07;;;;;;;13.77;9.30;;;1.00;99.90;;;;;;5015608;28;20049;-92
2021/01/27 19:53:33;;;;;;;14.07;8.80;;;1.00;99.90;;;;;;5008645;28;20025;-92
2021/01/27 19:56:16;;;;;;;15.00;9.03;;;1.00;99.90;;;;;;5013824;28;20083;-93
2021/01/27 19:58:51;;;;;;;14.53;9.00;;;1.00;99.90;;;;;;5021541;28;20045;-94
2021/01/27 20:01:29;;;;;;;14.03;9.67;;;1.00;99.90;;;;;;5025795;28;20479;-93
2021/01/27 20:03:56;;;;;;;14.83;9.57;;;1.10;99.90;;;;;;4997714;28;20025;-94
2021/01/27 20:06:23;;;;;;;17.57;9.43;;;1.10;99.90;;;;;;5016275;28;20347;-93
2021/01/27 20:08:56;;;;;;;16.53;10.17;;;1.10;99.90;;;;;;5025096;28;20068;-94
2021/01/27 20:11:37;;;;;;;13.17;9.07;;;1.10;99.90;;;;;;5019242;28;20025;-94
2021/01/27 21:03:07;;;;;;;16.63;10.30;;;1.20;99.90;;;;;;5043986;28;20486;-86
2021/01/27 21:05:34;;;;;;;18.93;9.80;;;1.20;99.90;;;;;;5021654;28;20017;-86
2021/01/27 21:08:01;;;;;;;14.77;9.67;;;1.20;99.90;;;;;;5032592;28;20120;-87
2021/01/27 21:10:28;;;;;;;19.23;10.13;;;1.30;99.90;;;;;;5023931;28;20027;-86
2021/01/27 21:12:55;;;;;;;18.53;9.83;;;1.30;99.90;;;;;;5025983;28;20037;-87
2021/01/27 21:15:25;;;;;;;13.00;9.63;;;1.30;99.90;;;;;;5026181;28;20029;-87
2021/01/27 21:17:51;;;;;;;17.07;9.63;;;1.30;99.90;;;;;;5030586;28;20033;-87
2021/01/27 21:20:18;;;;;;;14.87;9.60;;;1.30;99.90;;;;;;5031879;28;20088;-87
2021/01/27 21:22:44;;;;;;;18.13;9.27;;;1.30;99.90;;;;;;5020497;28;20033;-87
2021/01/27 21:25:11;;;;;;;15.30;9.03;;;1.30;99.90;;;;;;5023362;28;20032;-87
2021/01/27 21:27:38;;;;;;;13.97;8.73;;;1.30;99.90;;;;;;5019151;28;20035;-86
2021/01/27 21:30:07;;;;;;;15.97;9.60;;;1.40;99.90;;;;;;5024860;28;20052;-87
2021/01/27 21:32:35;;;;;;;15.57;8.83;;;1.40;99.90;;;;;;5025190;28;20544;-87
2021/01/27 21:35:01;;;;;;;14.23;8.67;;;1.40;99.90;;;;;;5022079;28;20087;-87
2021/01/27 21:37:27;;;;;;;13.23;8.77;;;1.40;99.90;;;;;;5021055;28;20029;-87
2021/01/27 21:39:53;;;;;;;11.67;6.87;;;1.40;99.90;;;;;;5041834;28;20087;-87
2021/01/27 21:42:18;;;;;;;14.80;8.23;;;1.40;99.90;;;;;;5015475;28;20029;-87
2021/01/27 21:44:45;;;;;;;12.10;7.27;;;1.40;99.90;;;;;;5035117;28;20057;-87
2021/01/27 21:47:11;;;;;;;11.33;7.10;;;1.50;99.90;;;;;;5016237;28;20017;-87
2021/01/27 21:49:37;;;;;;;11.50;6.53;;;1.50;99.90;;;;;;5021865;28;20041;-87
2021/01/27 21:52:02;;;;;;;10.37;6.30;;;1.50;99.90;;;;;;5021211;28;20022;-86
2021/01/27 21:54:28;;;;;;;10.97;6.83;;;1.60;99.90;;;;;;5028118;28;20022;-86